aviador You're here:

KGAF Decoded Metar

in
Report Time2018-02-25 09:15:00
UTC Time2018-02-25 11:30:24
Flight Rules Old
Wind250° at 06 kt
W.Decomp.*RWY 26: 5.9 kt HW 1 kt LCW
RWY 17: 1.0 kt HW 5.9 kt RCW
W.Rank250° ranks 18
Current wind is below 250° avg. (7.8)
Visibility9999 m
Phenomena:N/A
Clouds:Broken 034 Hf
Expected CloudBase > 400 ft AGL from Temp-Dew spread
Ceiling3,400 ft
Temp-9°C
Dew Point-10°C (93% RH)
AAT-14.2°C
QNH999 hPa
Raw Report
METAR KGAF 250915Z AUTO 25006KT 10SM BKN034 M09/M10 A2951 RMK AO2 PWINO=

Extra information for KGAF:More info

Social comments